Time;durP1;ratioP1;P1;durP2;ratioP2;P2;SDS_P1;SDS_P2;PMS_P1;PMS_P2;Temp;Humidity;BMP_temperature;BMP_pressure;BME280_temperature;BME280_humidity;BME280_pressure;Samples;Min_cycle;Max_cycle;Signal;HPM_P1;HPM_P2
2023/04/07 00:01:20;;;;;;;;;;;18.90;39.00;;;;;;5008073;28;19910;-73
2023/04/07 00:03:46;;;;;;;;;;;18.90;38.40;;;;;;5008868;28;20025;-73
2023/04/07 00:06:11;;;;;;;;;;;18.90;38.60;;;;;;4992989;28;19995;-73
2023/04/07 00:08:37;;;;;;;;;;;18.80;38.40;;;;;;4993487;28;20384;-73
2023/04/07 00:11:02;;;;;;;;;;;18.80;38.60;;;;;;5016469;28;20122;-73
2023/04/07 00:13:28;;;;;;;;;;;18.80;38.60;;;;;;5010243;28;19936;-73
2023/04/07 00:15:53;;;;;;;;;;;18.80;38.80;;;;;;5007788;28;19958;-73
2023/04/07 00:18:18;;;;;;;;;;;18.80;38.50;;;;;;5003919;28;20430;-73
2023/04/07 00:20:44;;;;;;;;;;;18.80;38.60;;;;;;5002601;28;19914;-73
2023/04/07 00:23:09;;;;;;;;;;;18.80;38.70;;;;;;5010449;28;19941;-73
2023/04/07 00:25:35;;;;;;;;;;;18.70;38.70;;;;;;5005116;28;19922;-73
2023/04/07 00:28:00;;;;;;;;;;;18.70;38.70;;;;;;5004347;28;19914;-73
2023/04/07 00:30:26;;;;;;;;;;;18.70;38.70;;;;;;5006953;28;19973;-73
2023/04/07 00:32:51;;;;;;;;;;;18.70;38.60;;;;;;4994978;28;20397;-73
2023/04/07 00:35:17;;;;;;;;;;;18.70;38.80;;;;;;5016602;28;19924;-73
2023/04/07 00:37:42;;;;;;;;;;;18.70;38.70;;;;;;5007788;28;20018;-73
2023/04/07 00:40:08;;;;;;;;;;;18.70;38.70;;;;;;5000745;28;19936;-73
2023/04/07 00:42:34;;;;;;;;;;;18.70;38.70;;;;;;5002872;28;20539;-73
2023/04/07 00:45:00;;;;;;;;;;;18.60;38.70;;;;;;5006386;28;20409;-73
2023/04/07 00:47:25;;;;;;;;;;;18.60;38.60;;;;;;5009547;28;19917;-73
2023/04/07 00:49:50;;;;;;;;;;;18.60;38.70;;;;;;5008367;27;20371;-73
2023/04/07 00:52:16;;;;;;;;;;;18.60;38.70;;;;;;5004763;28;19917;-73
2023/04/07 00:54:42;;;;;;;;;;;18.60;39.40;;;;;;5019735;28;19924;-73
2023/04/07 00:57:08;;;;;;;;;;;18.60;38.70;;;;;;5007598;28;20008;-73
2023/04/07 00:59:33;;;;;;;;;;;18.60;38.80;;;;;;5007881;28;20383;-73
2023/04/07 01:02:17;;;;;;;;;;;18.50;39.30;;;;;;5008993;27;19926;-73
2023/04/07 01:04:46;;;;;;;;;;;18.50;38.60;;;;;;5008348;28;19924;-73
2023/04/07 01:07:16;;;;;;;;;;;18.50;38.60;;;;;;5008852;28;19963;-73
2023/04/07 01:09:46;;;;;;;;;;;18.50;39.50;;;;;;5017485;28;19913;-73
2023/04/07 01:12:27;;;;;;;;;;;18.50;38.60;;;;;;5008787;28;19968;-73
2023/04/07 01:14:54;;;;;;;;;;;18.60;38.70;;;;;;5019009;28;20019;-73
2023/04/07 01:17:20;;;;;;;;;;;18.60;39.30;;;;;;5016331;28;19924;-73
2023/04/07 01:19:56;;;;;;;;;;;18.80;39.50;;;;;;5003055;28;19913;-73
2023/04/07 01:22:22;;;;;;;;;;;19.00;39.00;;;;;;5002505;28;19924;-73
2023/04/07 01:24:48;;;;;;;;;;;19.20;38.20;;;;;;4998587;28;20006;-73
2023/04/07 01:27:32;;;;;;;;;;;19.40;37.90;;;;;;5010891;28;19921;-73
2023/04/07 01:29:57;;;;;;;;;;;19.70;37.90;;;;;;5008384;28;20387;-73
2023/04/07 01:32:23;;;;;;;;;;;20.00;37.40;;;;;;4993419;28;19982;-73
2023/04/07 01:34:49;;;;;;;;;;;20.30;36.60;;;;;;5013765;27;19925;-73
2023/04/07 01:37:15;;;;;;;;;;;20.70;36.30;;;;;;5000114;28;19936;-73
2023/04/07 01:39:40;;;;;;;;;;;21.10;35.80;;;;;;5007530;28;19959;-73
2023/04/07 01:42:06;;;;;;;;;;;21.30;35.40;;;;;;5004874;28;19913;-73
2023/04/07 01:44:31;;;;;;;;;;;21.50;35.10;;;;;;5010099;28;19953;-73
2023/04/07 01:46:57;;;;;;;;;;;21.50;34.70;;;;;;5013055;28;19914;-73
2023/04/07 01:49:22;;;;;;;;;;;21.60;34.80;;;;;;5011470;28;19921;-73
2023/04/07 01:51:49;;;;;;;;;;;21.50;35.00;;;;;;5019908;28;19922;-73
2023/04/07 01:54:15;;;;;;;;;;;21.30;35.40;;;;;;5001423;28;20016;-73
2023/04/07 01:56:40;;;;;;;;;;;21.10;35.40;;;;;;5007323;28;19960;-73
2023/04/07 01:59:06;;;;;;;;;;;20.90;35.60;;;;;;5011296;28;19964;-73
2023/04/07 02:01:31;;;;;;;;;;;20.70;36.10;;;;;;5007418;28;19914;-73
2023/04/07 02:04:03;;;;;;;;;;;20.60;36.40;;;;;;5011628;28;20008;-73
2023/04/07 02:06:31;;;;;;;;;;;20.50;36.50;;;;;;5018271;28;19917;-73
2023/04/07 02:08:58;;;;;;;;;;;20.30;36.40;;;;;;5003506;28;19918;-73
2023/04/07 02:11:23;;;;;;;;;;;20.20;36.70;;;;;;5006822;28;19922;-73
2023/04/07 02:13:50;;;;;;;;;;;20.20;36.90;;;;;;5005151;28;19932;-73
2023/04/07 02:16:16;;;;;;;;;;;20.10;36.90;;;;;;5009268;28;19918;-73
2023/04/07 02:18:42;;;;;;;;;;;20.00;36.80;;;;;;5010515;28;19920;-73
2023/04/07 02:21:07;;;;;;;;;;;20.00;36.80;;;;;;5005274;28;20356;-73
2023/04/07 02:23:36;;;;;;;;;;;20.00;36.50;;;;;;5011261;28;20382;-73
2023/04/07 02:26:01;;;;;;;;;;;19.90;36.80;;;;;;5009048;28;19914;-73
2023/04/07 02:28:27;;;;;;;;;;;19.80;36.50;;;;;;5014594;28;19965;-73
2023/04/07 02:30:52;;;;;;;;;;;19.70;36.70;;;;;;5016318;28;19977;-73
2023/04/07 02:33:18;;;;;;;;;;;19.70;36.60;;;;;;5005963;28;19925;-73
2023/04/07 02:35:43;;;;;;;;;;;19.70;36.50;;;;;;5016174;28;19956;-73
2023/04/07 02:38:09;;;;;;;;;;;19.60;36.70;;;;;;5015770;28;19921;-73
2023/04/07 02:40:35;;;;;;;;;;;19.60;36.70;;;;;;5006915;28;19913;-73
2023/04/07 02:43:01;;;;;;;;;;;19.60;36.80;;;;;;5006864;28;19920;-73
2023/04/07 02:45:26;;;;;;;;;;;19.50;36.70;;;;;;5042406;27;19911;-73
2023/04/07 02:47:51;;;;;;;;;;;19.50;36.70;;;;;;5050333;27;19913;-73
2023/04/07 02:50:17;;;;;;;;;;;19.50;36.90;;;;;;5013491;28;19953;-73
2023/04/07 02:52:42;;;;;;;;;;;19.40;37.20;;;;;;5011472;28;19940;-74
2023/04/07 02:55:08;;;;;;;;;;;19.40;37.00;;;;;;5010339;28;19979;-73
2023/04/07 02:57:33;;;;;;;;;;;19.50;37.00;;;;;;4995210;28;19917;-73
2023/04/07 02:59:59;;;;;;;;;;;19.50;37.60;;;;;;5012159;28;19921;-73
2023/04/07 03:02:25;;;;;;;;;;;19.70;37.40;;;;;;5023172;28;19964;-73
2023/04/07 03:04:51;;;;;;;;;;;19.80;37.20;;;;;;5025508;28;20392;-72
2023/04/07 03:07:16;;;;;;;;;;;20.00;36.70;;;;;;4994953;28;19966;-73
2023/04/07 03:09:42;;;;;;;;;;;20.10;36.50;;;;;;5017662;28;19956;-73
2023/04/07 03:12:07;;;;;;;;;;;20.20;36.40;;;;;;5008306;28;19925;-73
2023/04/07 03:14:33;;;;;;;;;;;20.20;36.40;;;;;;5003605;28;19925;-73
2023/04/07 03:16:58;;;;;;;;;;;20.20;36.20;;;;;;5007409;28;20425;-73
2023/04/07 03:19:24;;;;;;;;;;;20.20;36.50;;;;;;4994491;28;19914;-73
2023/04/07 03:21:49;;;;;;;;;;;20.10;36.50;;;;;;5008824;28;19921;-73
2023/04/07 03:24:15;;;;;;;;;;;20.00;36.70;;;;;;5001036;28;19926;-73
2023/04/07 03:26:40;;;;;;;;;;;19.90;36.50;;;;;;5001134;28;19920;-73
2023/04/07 03:29:06;;;;;;;;;;;19.80;36.60;;;;;;5004729;28;19913;-73
2023/04/07 03:31:31;;;;;;;;;;;19.70;37.00;;;;;;5006999;28;20370;-73
2023/04/07 03:33:57;;;;;;;;;;;19.60;37.10;;;;;;5006539;28;19922;-73
2023/04/07 03:36:23;;;;;;;;;;;19.60;36.90;;;;;;5002103;28;19920;-73
2023/04/07 03:38:48;;;;;;;;;;;19.60;36.50;;;;;;5000031;28;19925;-73
2023/04/07 03:41:14;;;;;;;;;;;19.50;36.50;;;;;;5006488;28;19914;-73
2023/04/07 03:43:40;;;;;;;;;;;19.50;36.60;;;;;;5012449;28;19913;-73
2023/04/07 03:46:05;;;;;;;;;;;19.50;36.80;;;;;;5024753;28;19913;-73
2023/04/07 03:48:31;;;;;;;;;;;19.50;36.60;;;;;;5009191;28;19914;-73
2023/04/07 03:50:56;;;;;;;;;;;19.50;36.60;;;;;;5015824;28;20840;-73
2023/04/07 03:53:22;;;;;;;;;;;19.50;36.60;;;;;;4999131;28;20027;-73
2023/04/07 03:55:47;;;;;;;;;;;19.50;36.60;;;;;;5009123;28;19986;-73
2023/04/07 03:58:13;;;;;;;;;;;19.50;36.60;;;;;;5000670;28;19928;-73
2023/04/07 04:00:38;;;;;;;;;;;19.50;36.70;;;;;;5019330;28;19918;-73
2023/04/07 04:03:04;;;;;;;;;;;19.50;36.60;;;;;;5037848;27;19943;-73
2023/04/07 04:05:30;;;;;;;;;;;19.50;37.40;;;;;;5031555;27;19912;-73
2023/04/07 04:07:55;;;;;;;;;;;19.40;37.50;;;;;;5034815;28;20006;-73
2023/04/07 04:10:20;;;;;;;;;;;19.50;37.30;;;;;;5009887;28;20000;-74
2023/04/07 04:12:46;;;;;;;;;;;19.50;36.90;;;;;;5010026;28;20375;-73
2023/04/07 04:15:11;;;;;;;;;;;19.50;36.60;;;;;;4999840;28;19956;-73
2023/04/07 04:17:37;;;;;;;;;;;19.50;36.70;;;;;;4994303;28;19943;-73
2023/04/07 04:20:03;;;;;;;;;;;19.50;36.90;;;;;;5015032;28;19977;-73
2023/04/07 04:22:28;;;;;;;;;;;19.60;36.80;;;;;;5012234;28;20318;-73
2023/04/07 04:24:54;;;;;;;;;;;19.60;37.00;;;;;;5009171;28;20314;-73
2023/04/07 04:27:19;;;;;;;;;;;19.60;36.70;;;;;;5007003;28;20593;-73
2023/04/07 04:29:45;;;;;;;;;;;19.60;36.90;;;;;;5000299;28;20008;-73
2023/04/07 04:32:11;;;;;;;;;;;19.60;36.60;;;;;;5017779;28;19917;-73
2023/04/07 04:34:36;;;;;;;;;;;19.60;36.80;;;;;;5000121;28;20394;-73
2023/04/07 04:37:02;;;;;;;;;;;19.50;36.90;;;;;;4995985;28;20298;-73
2023/04/07 04:39:27;;;;;;;;;;;19.50;37.20;;;;;;4999798;28;19917;-73
2023/04/07 04:41:52;;;;;;;;;;;19.40;37.00;;;;;;5006009;28;20075;-73
2023/04/07 04:44:18;;;;;;;;;;;19.40;36.60;;;;;;4996618;28;19918;-73
2023/04/07 04:46:43;;;;;;;;;;;19.30;36.60;;;;;;5015775;28;19925;-74
2023/04/07 04:49:09;;;;;;;;;;;19.30;36.50;;;;;;4995357;28;19929;-74
2023/04/07 04:51:34;;;;;;;;;;;19.30;36.30;;;;;;5012637;28;20050;-74
2023/04/07 04:54:00;;;;;;;;;;;19.20;36.30;;;;;;5047017;28;19917;-73
2023/04/07 04:56:25;;;;;;;;;;;19.20;36.30;;;;;;5011539;28;19920;-74
2023/04/07 04:58:51;;;;;;;;;;;19.20;36.40;;;;;;5005328;28;19921;-73
2023/04/07 05:01:16;;;;;;;;;;;19.20;36.50;;;;;;5010926;28;19996;-73
2023/04/07 05:03:42;;;;;;;;;;;19.20;36.70;;;;;;5019526;28;20345;-74
2023/04/07 05:06:07;;;;;;;;;;;19.10;36.40;;;;;;4996715;28;19913;-74
2023/04/07 05:08:33;;;;;;;;;;;19.20;36.50;;;;;;4991601;28;19918;-73
2023/04/07 05:10:58;;;;;;;;;;;19.20;36.70;;;;;;4995434;28;20352;-73
2023/04/07 05:13:24;;;;;;;;;;;19.30;37.00;;;;;;5006898;28;19935;-74
2023/04/07 05:15:50;;;;;;;;;;;19.30;36.90;;;;;;4988582;28;19920;-73
2023/04/07 05:18:15;;;;;;;;;;;19.40;36.80;;;;;;5008854;28;19921;-73
2023/04/07 05:20:41;;;;;;;;;;;19.50;36.50;;;;;;5008795;28;19924;-73
2023/04/07 05:23:07;;;;;;;;;;;19.60;36.10;;;;;;5021032;28;19932;-73
2023/04/07 05:25:32;;;;;;;;;;;19.60;36.00;;;;;;5018064;28;19961;-73
2023/04/07 05:27:58;;;;;;;;;;;19.60;36.10;;;;;;5002550;28;19933;-74
2023/04/07 05:30:24;;;;;;;;;;;19.70;36.30;;;;;;5013610;28;19918;-74
2023/04/07 05:32:49;;;;;;;;;;;19.70;36.20;;;;;;5027116;27;19920;-74
2023/04/07 05:35:15;;;;;;;;;;;19.60;36.10;;;;;;5014020;28;20015;-74
2023/04/07 05:37:41;;;;;;;;;;;19.60;36.00;;;;;;5029821;28;19991;-74
2023/04/07 05:40:06;;;;;;;;;;;19.60;36.30;;;;;;5016063;28;19917;-73
2023/04/07 05:42:32;;;;;;;;;;;19.50;36.30;;;;;;5005939;28;20000;-73
2023/04/07 05:44:57;;;;;;;;;;;19.50;36.30;;;;;;5006274;28;20387;-73
2023/04/07 05:47:23;;;;;;;;;;;19.40;36.30;;;;;;5016938;28;19953;-73
2023/04/07 05:49:48;;;;;;;;;;;19.30;36.70;;;;;;5005998;28;19917;-73
2023/04/07 05:52:14;;;;;;;;;;;19.30;36.20;;;;;;4990929;28;19922;-73
2023/04/07 05:54:39;;;;;;;;;;;19.30;36.00;;;;;;4999760;28;20008;-73
2023/04/07 05:57:06;;;;;;;;;;;19.30;36.00;;;;;;5009564;28;19920;-73
2023/04/07 05:59:31;;;;;;;;;;;19.30;36.00;;;;;;5016910;28;19914;-73
2023/04/07 06:01:57;;;;;;;;;;;19.20;36.00;;;;;;5002769;28;19920;-73
2023/04/07 06:04:22;;;;;;;;;;;19.30;36.30;;;;;;5009103;28;19917;-73
2023/04/07 06:06:48;;;;;;;;;;;19.20;36.20;;;;;;4997758;28;20394;-73
2023/04/07 06:09:13;;;;;;;;;;;19.30;36.30;;;;;;4996983;28;19978;-74
2023/04/07 06:11:39;;;;;;;;;;;19.30;36.20;;;;;;5060905;27;19971;-73
2023/04/07 06:14:04;;;;;;;;;;;19.30;36.40;;;;;;5017337;28;19924;-74
2023/04/07 06:16:30;;;;;;;;;;;19.30;36.90;;;;;;4992464;28;19924;-74
2023/04/07 06:18:57;;;;;;;;;;;19.30;36.60;;;;;;5005409;28;23302;-73
2023/04/07 06:21:23;;;;;;;;;;;19.30;36.40;;;;;;5009856;28;19918;-73
2023/04/07 06:23:49;;;;;;;;;;;19.40;36.40;;;;;;5008399;28;20371;-74
2023/04/07 06:26:14;;;;;;;;;;;19.40;36.50;;;;;;5011805;27;19966;-73
2023/04/07 06:28:40;;;;;;;;;;;19.50;36.30;;;;;;5009451;28;20388;-73
2023/04/07 06:31:06;;;;;;;;;;;19.50;36.20;;;;;;5007398;27;20504;-73
2023/04/07 06:33:31;;;;;;;;;;;19.50;36.20;;;;;;4994381;28;19929;-73
2023/04/07 06:35:57;;;;;;;;;;;19.50;36.30;;;;;;4998710;28;19967;-73
2023/04/07 06:38:22;;;;;;;;;;;19.50;36.00;;;;;;5007034;28;19914;-73
2023/04/07 06:40:48;;;;;;;;;;;19.40;36.30;;;;;;4997222;28;19924;-73
2023/04/07 06:43:13;;;;;;;;;;;19.50;36.50;;;;;;5018651;27;19921;-73
2023/04/07 06:45:39;;;;;;;;;;;19.50;36.70;;;;;;5000711;28;19917;-73
2023/04/07 06:48:04;;;;;;;;;;;19.40;36.30;;;;;;5001094;28;20374;-73
2023/04/07 06:50:30;;;;;;;;;;;19.40;36.30;;;;;;5008856;28;20281;-73
2023/04/07 06:52:55;;;;;;;;;;;19.30;36.30;;;;;;5005068;28;19920;-73
2023/04/07 06:55:21;;;;;;;;;;;19.30;36.30;;;;;;5006301;28;19970;-73
2023/04/07 06:57:46;;;;;;;;;;;19.30;36.10;;;;;;5006272;28;19921;-73
2023/04/07 07:00:12;;;;;;;;;;;19.30;36.10;;;;;;5011887;28;20034;-73
2023/04/07 07:02:37;;;;;;;;;;;19.30;36.30;;;;;;5002318;28;19918;-73
2023/04/07 07:05:03;;;;;;;;;;;19.30;36.20;;;;;;5018087;28;19925;-73
2023/04/07 07:07:29;;;;;;;;;;;19.20;36.20;;;;;;5012104;28;19924;-74
2023/04/07 07:09:54;;;;;;;;;;;19.20;36.20;;;;;;4997277;28;19966;-73
2023/04/07 07:12:20;;;;;;;;;;;19.20;36.40;;;;;;5013155;28;20382;-73
2023/04/07 07:14:46;;;;;;;;;;;19.20;36.30;;;;;;5003222;28;20000;-74
2023/04/07 07:17:11;;;;;;;;;;;19.20;36.50;;;;;;5008770;28;19913;-74
2023/04/07 07:19:37;;;;;;;;;;;19.20;36.50;;;;;;5017599;27;20339;-73
2023/04/07 07:22:03;;;;;;;;;;;19.20;37.10;;;;;;5009527;28;19913;-73
2023/04/07 07:24:29;;;;;;;;;;;19.20;36.90;;;;;;5007351;28;19917;-73
2023/04/07 07:26:56;;;;;;;;;;;19.30;36.60;;;;;;5006537;28;19918;-73
2023/04/07 07:29:21;;;;;;;;;;;19.30;36.60;;;;;;5005541;28;19914;-73
2023/04/07 07:31:47;;;;;;;;;;;19.40;36.70;;;;;;5019576;28;19918;-73
2023/04/07 07:34:12;;;;;;;;;;;19.40;36.40;;;;;;5006593;28;19928;-73
2023/04/07 07:36:37;;;;;;;;;;;19.50;36.40;;;;;;5015240;28;19941;-73
2023/04/07 07:39:04;;;;;;;;;;;19.50;36.60;;;;;;4997826;28;19929;-73
2023/04/07 07:41:29;;;;;;;;;;;19.50;36.80;;;;;;4993370;28;19921;-73
2023/04/07 07:43:55;;;;;;;;;;;19.60;37.20;;;;;;4990338;28;19921;-73
2023/04/07 07:46:22;;;;;;;;;;;19.70;36.90;;;;;;5006301;28;20279;-73
2023/04/07 07:48:48;;;;;;;;;;;19.70;37.40;;;;;;5001809;28;20060;-73
2023/04/07 07:51:13;;;;;;;;;;;19.70;37.10;;;;;;5013818;28;19925;-74
2023/04/07 07:53:38;;;;;;;;;;;19.70;37.60;;;;;;5065529;27;19978;-74
2023/04/07 07:56:04;;;;;;;;;;;19.70;37.70;;;;;;5013448;28;19958;-74
2023/04/07 07:58:29;;;;;;;;;;;19.70;37.90;;;;;;5002696;28;19921;-74
2023/04/07 08:00:55;;;;;;;;;;;19.70;38.30;;;;;;5018706;28;19917;-74
2023/04/07 08:03:21;;;;;;;;;;;19.70;38.40;;;;;;5012743;28;19996;-74
2023/04/07 08:05:47;;;;;;;;;;;19.60;38.10;;;;;;5012060;27;20471;-74
2023/04/07 08:08:12;;;;;;;;;;;19.70;37.70;;;;;;5022430;28;20256;-74
2023/04/07 08:10:38;;;;;;;;;;;19.80;37.80;;;;;;5004638;28;19924;-74
2023/04/07 08:13:04;;;;;;;;;;;19.90;37.70;;;;;;5007590;28;19925;-75
2023/04/07 08:15:29;;;;;;;;;;;19.90;38.00;;;;;;5022047;28;20037;-74
2023/04/07 08:17:55;;;;;;;;;;;20.00;38.00;;;;;;5011518;28;20341;-74
2023/04/07 08:20:20;;;;;;;;;;;20.00;37.90;;;;;;5037912;28;19943;-73
2023/04/07 08:22:46;;;;;;;;;;;20.00;37.70;;;;;;5014703;28;19966;-73
2023/04/07 08:25:11;;;;;;;;;;;20.00;37.90;;;;;;5045143;28;20433;-74
2023/04/07 08:27:36;;;;;;;;;;;20.00;38.00;;;;;;4992610;28;19937;-74
2023/04/07 08:30:03;;;;;;;;;;;20.00;38.10;;;;;;4997310;28;19920;-74
2023/04/07 08:32:38;;;;;;;;;;;20.00;38.10;;;;;;4999718;28;19928;-74
2023/04/07 08:35:04;;;;;;;;;;;20.00;38.00;;;;;;5015022;28;19921;-73
2023/04/07 08:37:30;;;;;;;;;;;20.00;38.00;;;;;;5033365;28;19928;-73
2023/04/07 08:39:55;;;;;;;;;;;20.10;38.20;;;;;;5041568;28;19921;-74
2023/04/07 08:42:21;;;;;;;;;;;20.10;38.20;;;;;;5026681;28;19924;-74
2023/04/07 08:44:46;;;;;;;;;;;20.10;38.50;;;;;;5030688;28;19920;-75
2023/04/07 08:47:12;;;;;;;;;;;20.10;38.90;;;;;;5029990;28;20290;-74
2023/04/07 08:49:37;;;;;;;;;;;20.00;38.70;;;;;;5056831;28;19916;-74
2023/04/07 08:52:03;;;;;;;;;;;19.90;38.60;;;;;;5029278;28;20006;-74
2023/04/07 08:54:29;;;;;;;;;;;19.90;38.80;;;;;;5052505;27;19921;-74
2023/04/07 08:56:54;;;;;;;;;;;19.90;38.70;;;;;;5001935;28;20350;-75
2023/04/07 08:59:25;;;;;;;;;;;19.90;38.70;;;;;;5010937;28;19918;-75
2023/04/07 09:01:50;;;;;;;;;;;19.90;38.60;;;;;;5067159;28;20393;-75
2023/04/07 09:04:19;;;;;;;;;;;19.90;38.70;;;;;;5011048;28;19917;-74
2023/04/07 09:06:44;;;;;;;;;;;19.90;38.80;;;;;;5011730;28;19967;-74
2023/04/07 09:09:10;;;;;;;;;;;19.90;38.70;;;;;;4995417;28;19913;-74
2023/04/07 09:11:38;;;;;;;;;;;19.90;38.60;;;;;;5021006;28;19925;-74
2023/04/07 09:14:04;;;;;;;;;;;20.00;38.80;;;;;;5003066;28;19928;-74
2023/04/07 09:16:30;;;;;;;;;;;20.00;38.90;;;;;;4999995;28;20004;-74
2023/04/07 09:18:55;;;;;;;;;;;19.90;38.80;;;;;;4995260;28;20005;-74
2023/04/07 09:21:21;;;;;;;;;;;19.90;38.80;;;;;;5012318;28;19913;-74
2023/04/07 09:23:46;;;;;;;;;;;20.00;38.80;;;;;;5008366;28;19966;-74
2023/04/07 09:26:21;;;;;;;;;;;20.00;38.70;;;;;;4991798;28;19914;-74
2023/04/07 09:28:49;;;;;;;;;;;20.00;38.70;;;;;;5026089;28;19913;-74
2023/04/07 09:31:14;;;;;;;;;;;20.10;38.70;;;;;;4995195;28;19913;-74
2023/04/07 09:33:40;;;;;;;;;;;20.10;38.80;;;;;;5020267;28;19921;-74
2023/04/07 09:36:06;;;;;;;;;;;20.20;38.70;;;;;;5016686;27;20367;-74
2023/04/07 09:38:35;;;;;;;;;;;20.30;38.90;;;;;;5071300;27;20361;-74
2023/04/07 09:41:04;;;;;;;;;;;20.30;38.70;;;;;;5010220;28;20393;-74
2023/04/07 09:43:30;;;;;;;;;;;20.40;38.90;;;;;;4996675;28;20365;-74
2023/04/07 09:46:05;;;;;;;;;;;20.40;38.70;;;;;;5015431;27;20164;-75
2023/04/07 09:48:31;;;;;;;;;;;20.50;39.40;;;;;;4995182;28;19910;-75
2023/04/07 09:51:04;;;;;;;;;;;20.50;38.50;;;;;;5018066;28;19928;-74
2023/04/07 09:53:42;;;;;;;;;;;20.50;38.70;;;;;;5022803;27;19912;-75
2023/04/07 09:56:08;;;;;;;;;;;20.50;38.50;;;;;;5022242;27;20369;-74
2023/04/07 09:58:34;;;;;;;;;;;20.40;38.40;;;;;;5011613;28;19921;-74
2023/04/07 10:01:00;;;;;;;;;;;20.30;38.50;;;;;;5009737;28;19918;-75
2023/04/07 10:03:25;;;;;;;;;;;20.30;38.50;;;;;;5024833;27;19917;-74
2023/04/07 10:05:51;;;;;;;;;;;20.30;38.60;;;;;;5018554;28;20008;-74
2023/04/07 10:08:16;;;;;;;;;;;20.30;38.60;;;;;;5005010;28;19913;-74
2023/04/07 10:10:43;;;;;;;;;;;20.30;38.60;;;;;;5010538;28;19910;-74
2023/04/07 10:13:08;;;;;;;;;;;20.30;38.60;;;;;;5027062;28;19925;-74
2023/04/07 10:15:35;;;;;;;;;;;20.30;38.70;;;;;;5020066;28;20290;-74
2023/04/07 10:18:00;;;;;;;;;;;20.30;38.60;;;;;;5018714;27;19924;-74
2023/04/07 10:20:26;;;;;;;;;;;20.30;38.50;;;;;;5015510;28;19996;-74
2023/04/07 10:22:51;;;;;;;;;;;20.30;38.60;;;;;;5024813;28;20412;-74
2023/04/07 10:25:17;;;;;;;;;;;20.30;38.60;;;;;;5010229;28;19913;-74
2023/04/07 10:27:50;;;;;;;;;;;20.30;38.70;;;;;;5009509;28;19928;-74
2023/04/07 10:30:20;;;;;;;;;;;20.30;38.70;;;;;;5009234;28;19918;-74
2023/04/07 10:32:49;;;;;;;;;;;20.30;38.60;;;;;;5024358;27;19949;-75
2023/04/07 10:35:16;;;;;;;;;;;20.30;38.60;;;;;;5031298;28;19963;-75
2023/04/07 10:37:44;;;;;;;;;;;20.40;38.50;;;;;;5031597;28;19916;-74
2023/04/07 10:40:20;;;;;;;;;;;20.50;38.50;;;;;;5010705;28;20286;-74
2023/04/07 10:42:46;;;;;;;;;;;20.50;38.40;;;;;;5010055;28;19913;-75
2023/04/07 10:45:12;;;;;;;;;;;20.60;38.40;;;;;;5007703;28;20430;-75
2023/04/07 10:47:56;;;;;;;;;;;20.60;38.30;;;;;;5009130;28;19948;-74
2023/04/07 10:50:22;;;;;;;;;;;20.70;38.40;;;;;;5012834;28;19913;-75
2023/04/07 10:53:04;;;;;;;;;;;20.70;38.10;;;;;;5026137;28;19920;-74
2023/04/07 10:55:30;;;;;;;;;;;20.70;38.00;;;;;;5009922;28;19921;-74
2023/04/07 10:58:15;;;;;;;;;;;20.70;38.10;;;;;;5001305;28;19996;-75
2023/04/07 11:00:40;;;;;;;;;;;20.70;38.10;;;;;;5009072;28;19920;-75
2023/04/07 11:03:11;;;;;;;;;;;20.70;38.00;;;;;;4997789;28;20291;-75
2023/04/07 11:05:37;;;;;;;;;;;20.80;38.00;;;;;;5010128;28;19978;-75
2023/04/07 11:08:05;;;;;;;;;;;20.70;38.00;;;;;;4993874;28;20378;-73
2023/04/07 11:10:31;;;;;;;;;;;20.70;38.10;;;;;;5010724;28;20030;-75
2023/04/07 11:12:57;;;;;;;;;;;20.70;38.10;;;;;;5005999;28;19921;-75
2023/04/07 11:15:23;;;;;;;;;;;20.70;38.10;;;;;;4992610;28;19955;-74
2023/04/07 11:18:07;;;;;;;;;;;20.70;38.10;;;;;;5010833;28;20404;-74
2023/04/07 11:20:43;;;;;;;;;;;20.70;38.00;;;;;;5011131;28;19992;-74
2023/04/07 11:23:09;;;;;;;;;;;20.80;37.90;;;;;;5010119;28;20371;-74
2023/04/07 11:25:34;;;;;;;;;;;20.80;37.90;;;;;;5005287;28;19913;-75
2023/04/07 11:28:00;;;;;;;;;;;21.00;37.90;;;;;;4993672;28;19913;-75
2023/04/07 11:30:26;;;;;;;;;;;21.00;37.80;;;;;;4999490;28;19913;-75
2023/04/07 11:32:51;;;;;;;;;;;20.90;37.80;;;;;;5031177;28;19916;-75
2023/04/07 11:35:17;;;;;;;;;;;21.00;37.70;;;;;;5029213;28;20294;-74
2023/04/07 11:37:42;;;;;;;;;;;21.00;37.70;;;;;;5028552;28;19996;-75
2023/04/07 11:40:08;;;;;;;;;;;21.00;37.80;;;;;;5012359;28;20382;-75
2023/04/07 11:42:34;;;;;;;;;;;21.00;37.70;;;;;;4996725;28;20356;-75
2023/04/07 11:45:00;;;;;;;;;;;21.00;37.70;;;;;;5010781;28;19917;-75
2023/04/07 11:47:38;;;;;;;;;;;21.10;37.50;;;;;;4992904;28;19909;-75
2023/04/07 11:50:04;;;;;;;;;;;21.20;37.50;;;;;;5001279;28;20352;-75
2023/04/07 11:52:39;;;;;;;;;;;21.20;37.80;;;;;;5030370;28;19913;-75
2023/04/07 11:55:05;;;;;;;;;;;21.20;37.90;;;;;;5016531;28;20407;-74
2023/04/07 11:57:31;;;;;;;;;;;21.20;37.80;;;;;;5010775;28;20000;-74
2023/04/07 12:00:09;;;;;;;;;;;21.20;38.10;;;;;;4998946;28;19917;-75
2023/04/07 12:02:35;;;;;;;;;;;21.10;38.00;;;;;;5021158;28;19962;-75
2023/04/07 12:05:01;;;;;;;;;;;21.20;38.50;;;;;;5001178;28;19913;-75
2023/04/07 12:07:26;;;;;;;;;;;21.10;38.40;;;;;;5009502;28;20346;-75
2023/04/07 12:09:52;;;;;;;;;;;21.00;38.70;;;;;;5011030;28;19975;-75
2023/04/07 12:12:25;;;;;;;;;;;20.90;38.80;;;;;;5011399;28;19925;-75
2023/04/07 12:14:51;;;;;;;;;;;20.80;38.90;;;;;;5006446;28;19917;-75
2023/04/07 12:17:20;;;;;;;;;;;20.80;39.20;;;;;;5009038;28;19917;-75
2023/04/07 12:19:46;;;;;;;;;;;20.70;39.40;;;;;;4992503;28;19909;-75
2023/04/07 12:22:11;;;;;;;;;;;20.70;39.60;;;;;;5008884;28;19917;-75
2023/04/07 12:24:37;;;;;;;;;;;20.80;39.50;;;;;;5005941;28;19921;-74
2023/04/07 12:27:03;;;;;;;;;;;20.70;39.20;;;;;;5009018;28;20001;-75
2023/04/07 12:29:28;;;;;;;;;;;20.80;39.80;;;;;;5007296;28;19970;-75
2023/04/07 12:31:55;;;;;;;;;;;20.70;39.70;;;;;;5015236;28;19913;-75
2023/04/07 12:34:20;;;;;;;;;;;20.70;40.10;;;;;;5024659;28;20354;-75
2023/04/07 12:36:46;;;;;;;;;;;20.70;40.10;;;;;;5008634;28;19917;-75
2023/04/07 12:39:11;;;;;;;;;;;20.60;40.30;;;;;;5003151;28;19920;-75
2023/04/07 12:41:37;;;;;;;;;;;20.60;40.40;;;;;;5009169;28;20057;-75
2023/04/07 12:44:03;;;;;;;;;;;20.60;40.50;;;;;;5031811;28;20316;-75
2023/04/07 12:46:28;;;;;;;;;;;20.50;40.50;;;;;;5004894;28;19957;-75
2023/04/07 12:48:54;;;;;;;;;;;20.50;40.60;;;;;;5009013;28;20359;-75
2023/04/07 12:51:19;;;;;;;;;;;20.40;40.50;;;;;;5017075;28;19974;-74
2023/04/07 12:53:46;;;;;;;;;;;20.50;40.60;;;;;;5008061;28;20329;-75
2023/04/07 12:56:12;;;;;;;;;;;20.40;40.60;;;;;;5009603;28;19910;-75
2023/04/07 12:58:37;;;;;;;;;;;20.40;40.60;;;;;;5011676;28;19913;-75
2023/04/07 13:01:03;;;;;;;;;;;20.40;40.70;;;;;;5027550;28;19909;-75
2023/04/07 13:03:28;;;;;;;;;;;20.40;40.90;;;;;;5010421;28;19924;-75
2023/04/07 13:05:54;;;;;;;;;;;20.40;41.10;;;;;;5008338;28;20558;-75
2023/04/07 13:08:20;;;;;;;;;;;20.40;40.90;;;;;;4991152;28;20407;-74
2023/04/07 13:10:46;;;;;;;;;;;20.40;40.60;;;;;;5004848;28;19913;-75
2023/04/07 13:13:11;;;;;;;;;;;20.40;40.60;;;;;;5011264;28;19921;-75
2023/04/07 13:15:37;;;;;;;;;;;20.40;40.70;;;;;;5027054;28;19915;-75
2023/04/07 13:18:02;;;;;;;;;;;20.50;40.60;;;;;;5028071;28;19916;-75
2023/04/07 13:20:29;;;;;;;;;;;20.40;40.60;;;;;;4997281;28;19913;-75
2023/04/07 13:22:54;;;;;;;;;;;20.40;41.00;;;;;;4991863;28;19940;-75
2023/04/07 13:25:20;;;;;;;;;;;20.40;41.00;;;;;;5003337;28;19960;-74
2023/04/07 13:27:46;;;;;;;;;;;20.40;40.80;;;;;;5019126;28;19920;-74
2023/04/07 13:30:12;;;;;;;;;;;20.50;40.70;;;;;;5007223;28;20014;-74
2023/04/07 13:32:37;;;;;;;;;;;20.50;40.50;;;;;;5019048;28;19909;-74
2023/04/07 13:35:03;;;;;;;;;;;20.60;40.90;;;;;;5027533;28;19921;-75
2023/04/07 13:37:28;;;;;;;;;;;20.60;40.70;;;;;;5023448;28;20402;-75
2023/04/07 13:39:54;;;;;;;;;;;20.60;40.40;;;;;;5010757;28;19913;-74
2023/04/07 13:42:20;;;;;;;;;;;20.60;40.70;;;;;;4995024;28;20137;-75
2023/04/07 13:44:47;;;;;;;;;;;20.60;40.80;;;;;;5018423;27;19913;-74
2023/04/07 13:47:18;;;;;;;;;;;20.60;41.20;;;;;;5010158;28;19913;-75
2023/04/07 13:49:44;;;;;;;;;;;20.60;41.20;;;;;;5018606;28;19909;-75
2023/04/07 13:52:09;;;;;;;;;;;20.60;40.90;;;;;;5011209;28;19914;-75
2023/04/07 13:54:35;;;;;;;;;;;20.60;40.90;;;;;;5002060;28;20066;-75
2023/04/07 13:57:01;;;;;;;;;;;20.60;41.40;;;;;;5015244;28;20001;-75
2023/04/07 13:59:26;;;;;;;;;;;20.70;41.00;;;;;;5010642;28;19941;-75
2023/04/07 14:01:52;;;;;;;;;;;20.60;41.10;;;;;;5019327;27;19920;-75
2023/04/07 14:04:17;;;;;;;;;;;20.60;41.70;;;;;;5018185;28;20404;-75
2023/04/07 14:06:43;;;;;;;;;;;20.70;41.80;;;;;;5014154;28;20343;-75
2023/04/07 14:09:08;;;;;;;;;;;20.70;41.80;;;;;;5009080;28;19917;-76
2023/04/07 14:11:34;;;;;;;;;;;20.70;41.90;;;;;;5029718;28;19925;-75